Time;durP1;ratioP1;P1;durP2;ratioP2;P2;SDS_P1;SDS_P2;PMS_P1;PMS_P2;Temp;Humidity;BMP_temperature;BMP_pressure;BME280_temperature;BME280_humidity;BME280_pressure;Samples;Min_cycle;Max_cycle;Signal;HPM_P1;HPM_P2
2022/12/15 00:39:58;;;;;;;6.53;4.95;;;9.00;96.70;;;;;;5043619;28;20053;-74
2022/12/15 00:42:27;;;;;;;7.68;4.70;;;9.00;96.70;;;;;;5040674;28;20128;-74
2022/12/15 00:44:55;;;;;;;5.47;4.70;;;9.00;96.70;;;;;;5056430;28;20115;-74
2022/12/15 00:47:24;;;;;;;9.32;5.15;;;9.00;96.70;;;;;;5041175;28;20096;-74
2022/12/15 01:20:43;;;;;;;6.18;4.65;;;9.00;96.70;;;;;;5034218;28;20048;-73
2022/12/15 01:23:11;;;;;;;8.23;4.75;;;9.00;96.70;;;;;;5026646;28;20602;-74
2022/12/15 01:25:41;;;;;;;6.30;5.35;;;9.00;96.70;;;;;;5052231;28;20168;-73
2022/12/15 01:28:09;;;;;;;6.65;4.72;;;9.00;96.70;;;;;;5043620;28;20068;-73
2022/12/15 01:30:38;;;;;;;5.93;4.60;;;9.00;96.70;;;;;;5029195;28;20477;-74
2022/12/15 01:33:06;;;;;;;7.57;4.95;;;9.00;96.70;;;;;;5025244;28;20041;-74
2022/12/15 01:35:34;;;;;;;6.10;4.95;;;9.00;96.70;;;;;;5037386;28;20041;-74
2022/12/15 01:38:02;;;;;;;6.85;4.88;;;9.00;96.70;;;;;;5043356;28;20041;-74
2022/12/15 01:40:45;;;;;;;6.53;4.82;;;9.00;96.70;;;;;;5053591;28;20041;-74
2022/12/15 01:43:16;;;;;;;6.35;5.00;;;9.00;96.70;;;;;;5060345;28;20103;-74
2022/12/15 01:45:54;;;;;;;6.60;5.05;;;9.00;96.70;;;;;;5042614;28;20053;-74
2022/12/15 01:48:32;;;;;;;6.47;5.40;;;9.10;96.70;;;;;;5040297;28;20057;-74
2022/12/15 01:51:09;;;;;;;6.40;5.10;;;9.10;96.70;;;;;;5039042;28;20453;-73
2022/12/15 01:53:41;;;;;;;5.68;5.03;;;9.10;96.70;;;;;;5044092;28;20059;-75
2022/12/15 01:56:09;;;;;;;6.00;5.38;;;9.10;96.70;;;;;;5042689;28;20076;-75
2022/12/15 01:58:44;;;;;;;6.45;5.05;;;9.10;96.70;;;;;;5052334;28;20045;-75
2022/12/15 02:01:12;;;;;;;9.25;5.50;;;9.10;96.70;;;;;;5043342;28;20073;-76
2022/12/15 02:03:41;;;;;;;6.47;5.53;;;9.10;96.70;;;;;;5036026;28;20052;-76
2022/12/15 02:06:10;;;;;;;6.22;5.20;;;9.10;96.70;;;;;;5034777;28;20038;-76
2022/12/15 02:08:39;;;;;;;6.85;5.53;;;9.00;96.70;;;;;;5049720;28;20160;-74
2022/12/15 02:11:31;;;;;;;7.75;6.00;;;9.00;96.70;;;;;;5046006;28;20152;-75
2022/12/15 02:14:02;;;;;;;7.38;5.70;;;9.10;96.70;;;;;;5035153;28;20392;-75
2022/12/15 02:16:41;;;;;;;7.47;6.00;;;9.10;96.70;;;;;;5056428;28;20133;-75
2022/12/15 02:19:27;;;;;;;7.03;5.80;;;9.00;96.70;;;;;;5038109;28;20430;-75
2022/12/15 02:22:10;;;;;;;7.60;5.60;;;9.00;96.70;;;;;;5048929;28;20486;-75
2022/12/15 02:25:02;;;;;;;7.13;6.20;;;9.00;96.70;;;;;;5032194;28;20060;-75
2022/12/15 02:27:51;;;;;;;7.03;5.68;;;9.00;96.70;;;;;;5025290;28;20055;-76
2022/12/15 02:30:27;;;;;;;;;;;9.00;96.70;;;;;;5035722;28;20040;-75
2022/12/15 02:33:06;;;;;;;6.95;5.90;;;9.00;96.70;;;;;;5043980;28;19925;-75
2022/12/15 02:35:49;;;;;;;6.78;5.95;;;9.00;96.70;;;;;;5053525;28;20045;-75
2022/12/15 02:38:29;;;;;;;6.85;5.95;;;9.00;96.70;;;;;;5036020;28;20035;-74
2022/12/15 02:40:58;;;;;;;7.22;5.63;;;9.10;96.70;;;;;;5055399;28;20053;-74
2022/12/15 02:43:27;;;;;;;7.88;6.15;;;9.00;96.70;;;;;;5040708;28;20276;-74
2022/12/15 02:46:11;;;;;;;7.55;6.70;;;9.00;96.70;;;;;;5058341;28;20044;-74
2022/12/15 02:48:49;;;;;;;7.03;6.03;;;9.10;96.70;;;;;;5052906;28;20102;-74
2022/12/15 02:51:32;;;;;;;7.20;6.50;;;9.10;96.70;;;;;;5061707;28;20151;-73
2022/12/15 02:54:25;;;;;;;7.25;6.55;;;9.10;96.70;;;;;;5033873;28;20056;-74
2022/12/15 02:57:04;;;;;;;8.65;6.28;;;9.10;96.70;;;;;;5024634;28;20045;-73
2022/12/15 02:59:39;;;;;;;7.85;6.95;;;9.00;96.70;;;;;;5040808;28;20083;-73
2022/12/15 03:02:11;;;;;;;7.70;6.05;;;9.00;96.70;;;;;;5045556;28;20069;-74
2022/12/15 03:04:41;;;;;;;8.68;6.00;;;9.00;96.70;;;;;;5039256;28;20041;-74
2022/12/15 03:07:10;;;;;;;7.80;5.75;;;9.00;96.70;;;;;;5032041;28;20073;-73
2022/12/15 03:09:38;;;;;;;6.50;5.85;;;9.10;96.70;;;;;;5024420;28;20111;-74
2022/12/15 03:12:07;;;;;;;7.30;6.10;;;9.10;96.70;;;;;;5039949;28;20488;-75
2022/12/15 03:14:35;;;;;;;7.47;6.78;;;9.10;96.70;;;;;;5023908;28;20424;-75
2022/12/15 03:17:05;;;;;;;7.20;6.50;;;9.10;96.70;;;;;;5045279;28;20044;-75
2022/12/15 03:19:37;;;;;;;7.93;6.28;;;9.00;96.70;;;;;;5046181;28;20055;-75
2022/12/15 03:22:07;;;;;;;7.93;6.53;;;9.00;96.70;;;;;;5051721;28;20074;-76
2022/12/15 03:24:36;;;;;;;7.43;6.72;;;9.10;96.70;;;;;;5044786;28;21276;-74
2022/12/15 03:27:05;;;;;;;7.97;6.53;;;9.10;96.70;;;;;;5044209;28;20502;-74
2022/12/15 03:29:33;;;;;;;6.72;5.85;;;9.10;96.70;;;;;;5058914;28;20048;-74
2022/12/15 03:32:02;;;;;;;8.43;6.53;;;9.10;96.70;;;;;;5058886;28;20049;-74
2022/12/15 03:34:30;;;;;;;8.13;6.53;;;9.10;96.70;;;;;;5054893;28;20130;-73
2022/12/15 03:37:00;;;;;;;7.68;6.97;;;9.10;96.70;;;;;;5030029;28;20049;-74
2022/12/15 03:39:28;;;;;;;7.50;6.80;;;9.10;96.70;;;;;;5044954;28;20824;-74
2022/12/15 03:41:56;;;;;;;7.00;6.30;;;9.10;96.70;;;;;;5035787;28;20580;-74
2022/12/15 03:44:25;;;;;;;9.30;7.25;;;9.10;96.70;;;;;;5055370;28;20065;-74
2022/12/15 03:46:54;;;;;;;7.90;7.10;;;9.10;96.70;;;;;;5045807;28;20049;-76
2022/12/15 03:49:29;;;;;;;8.77;7.32;;;9.10;96.70;;;;;;5050447;28;20535;-75
2022/12/15 03:51:58;;;;;;;8.13;7.32;;;9.10;96.70;;;;;;5056787;28;20049;-74
2022/12/15 03:54:26;;;;;;;9.20;8.20;;;9.10;96.70;;;;;;5054437;28;20056;-74
2022/12/15 03:56:54;;;;;;;9.40;8.15;;;9.10;96.70;;;;;;5034850;28;20052;-74
2022/12/15 03:59:22;;;;;;;9.27;8.35;;;9.10;96.70;;;;;;5053368;28;20516;-74
2022/12/15 04:01:50;;;;;;;10.35;9.05;;;9.10;96.70;;;;;;5023249;28;20632;-75
2022/12/15 04:04:18;;;;;;;9.93;8.43;;;9.10;96.70;;;;;;5032203;28;20604;-74
2022/12/15 04:06:46;;;;;;;10.05;8.90;;;9.10;96.70;;;;;;5028822;28;20070;-74
2022/12/15 04:09:16;;;;;;;9.88;8.85;;;9.10;96.70;;;;;;5042064;28;20048;-74
2022/12/15 04:11:43;;;;;;;11.50;9.50;;;9.00;96.70;;;;;;5035326;28;20040;-74
2022/12/15 04:14:11;;;;;;;12.40;10.07;;;9.10;96.70;;;;;;5042107;28;20059;-74
2022/12/15 04:16:39;;;;;;;12.13;9.77;;;9.10;96.70;;;;;;5056834;28;20083;-74
2022/12/15 04:21:53;;;;;;;11.40;10.07;;;9.00;96.70;;;;;;5054276;28;20044;-74
2022/12/15 05:34:19;;;;;;;12.63;9.25;;;9.20;96.70;;;;;;4992704;28;20491;-74
2022/12/15 05:36:47;;;;;;;9.77;8.25;;;9.20;96.70;;;;;;5001748;28;20119;-75
2022/12/15 05:39:15;;;;;;;9.75;8.30;;;9.20;96.70;;;;;;5002118;28;20431;-75
2022/12/15 05:41:44;;;;;;;9.77;8.77;;;9.20;96.70;;;;;;5006827;28;20068;-74
2022/12/15 05:44:12;;;;;;;10.05;8.38;;;9.30;96.70;;;;;;5001650;28;20551;-75
2022/12/15 05:46:42;;;;;;;10.52;8.18;;;9.30;96.70;;;;;;4998289;28;20062;-74
2022/12/15 05:49:14;;;;;;;10.23;8.90;;;9.30;96.70;;;;;;4995632;28;20047;-75
2022/12/15 05:51:43;;;;;;;10.40;9.02;;;9.20;96.70;;;;;;4999684;28;20054;-75
2022/12/15 05:54:14;;;;;;;10.95;8.77;;;9.20;96.70;;;;;;4999878;28;20074;-76
2022/12/15 05:56:42;;;;;;;11.75;9.02;;;9.20;96.70;;;;;;5002121;28;20531;-74
2022/12/15 05:59:10;;;;;;;11.57;9.30;;;9.30;96.70;;;;;;4994978;28;20061;-74
2022/12/15 06:01:39;;;;;;;11.35;9.75;;;9.30;96.70;;;;;;4982827;28;20061;-75
2022/12/15 06:04:10;;;;;;;10.77;8.93;;;9.30;96.70;;;;;;5006041;28;20519;-75
2022/12/15 06:06:39;;;;;;;10.02;8.57;;;9.30;96.70;;;;;;5043914;28;20182;-74
2022/12/15 06:09:07;;;;;;;10.80;8.82;;;9.30;96.70;;;;;;5059469;28;20064;-74
2022/12/15 06:11:36;;;;;;;10.13;8.68;;;9.30;96.70;;;;;;5059392;28;20087;-75
2022/12/15 06:14:04;;;;;;;10.27;8.23;;;9.40;96.70;;;;;;5055317;28;20053;-74
2022/12/15 06:16:32;;;;;;;10.05;8.60;;;9.30;96.70;;;;;;5041238;28;20045;-75
2022/12/15 06:19:01;;;;;;;9.85;8.35;;;9.30;96.70;;;;;;5058777;28;20108;-74
2022/12/15 06:21:36;;;;;;;9.88;8.35;;;9.40;96.70;;;;;;5035187;28;20071;-76
2022/12/15 06:24:06;;;;;;;10.90;9.02;;;9.40;96.70;;;;;;5049959;28;20048;-74
2022/12/15 06:26:36;;;;;;;9.88;8.02;;;9.40;96.70;;;;;;5033629;28;20136;-74
2022/12/15 06:29:07;;;;;;;10.77;9.27;;;9.40;96.70;;;;;;5053983;28;20056;-74
2022/12/15 06:31:36;;;;;;;10.63;8.93;;;9.40;96.70;;;;;;5034623;28;20049;-74
2022/12/15 06:34:07;;;;;;;10.55;9.20;;;9.30;96.70;;;;;;5042411;28;20052;-74
2022/12/15 06:36:37;;;;;;;10.00;8.15;;;9.30;96.70;;;;;;5044939;28;20049;-75
2022/12/15 06:39:08;;;;;;;9.77;8.43;;;9.40;96.70;;;;;;5043899;28;20041;-74
2022/12/15 06:41:36;;;;;;;9.85;8.32;;;9.40;96.70;;;;;;5043716;28;20051;-74
2022/12/15 06:44:04;;;;;;;8.82;7.90;;;9.40;96.70;;;;;;5032905;28;20038;-74
2022/12/15 06:46:36;;;;;;;9.98;8.27;;;9.40;96.70;;;;;;5058569;28;20059;-75
2022/12/15 06:49:04;;;;;;;9.35;7.97;;;9.40;96.70;;;;;;5043465;28;20505;-76
2022/12/15 06:51:32;;;;;;;9.95;8.45;;;9.40;96.70;;;;;;5043958;28;20841;-75
2022/12/15 06:54:01;;;;;;;9.35;7.95;;;9.40;96.70;;;;;;5044060;28;20119;-74
2022/12/15 06:56:31;;;;;;;9.25;7.82;;;9.40;96.70;;;;;;5057215;28;20136;-74
2022/12/15 06:59:02;;;;;;;9.85;7.72;;;9.40;96.70;;;;;;5050757;28;20135;-74
2022/12/15 07:01:31;;;;;;;9.48;7.65;;;9.40;96.70;;;;;;5058528;28;20068;-75
2022/12/15 07:04:00;;;;;;;8.13;7.25;;;9.40;96.70;;;;;;5049558;28;20044;-75
2022/12/15 07:06:34;;;;;;;9.93;7.75;;;9.40;96.70;;;;;;5058850;28;20041;-75
2022/12/15 07:09:07;;;;;;;10.95;8.15;;;9.50;96.70;;;;;;5039568;28;20052;-74
2022/12/15 07:11:35;;;;;;;8.80;6.88;;;9.50;96.70;;;;;;5052216;28;20049;-75
2022/12/15 07:14:03;;;;;;;8.07;6.85;;;9.50;96.70;;;;;;5030863;28;20174;-74
2022/12/15 07:16:32;;;;;;;7.45;6.65;;;9.50;96.70;;;;;;5054712;28;20061;-75
2022/12/15 07:19:00;;;;;;;8.45;7.30;;;9.50;96.70;;;;;;5043081;28;20049;-75
2022/12/15 07:21:28;;;;;;;9.15;6.82;;;9.50;96.70;;;;;;5039017;28;20087;-75
2022/12/15 07:23:56;;;;;;;7.20;6.50;;;9.50;96.70;;;;;;5043132;28;20041;-77
2022/12/15 07:26:27;;;;;;;7.68;6.88;;;9.50;96.70;;;;;;5052845;28;20056;-75
2022/12/15 07:28:55;;;;;;;7.53;6.53;;;9.50;96.70;;;;;;5037812;28;20049;-75
2022/12/15 07:31:23;;;;;;;7.88;6.43;;;9.50;96.70;;;;;;5036439;28;20345;-75
2022/12/15 07:33:53;;;;;;;6.95;5.97;;;9.50;96.70;;;;;;5044936;28;20135;-76
2022/12/15 07:36:21;;;;;;;7.47;6.10;;;9.50;96.70;;;;;;5046231;28;20050;-75
2022/12/15 07:38:50;;;;;;;8.48;6.85;;;9.60;96.70;;;;;;5042785;28;20059;-76
2022/12/15 07:41:19;;;;;;;10.25;6.97;;;9.60;96.70;;;;;;5057776;28;20049;-76
2022/12/15 07:43:48;;;;;;;10.57;6.45;;;9.60;96.70;;;;;;5057167;28;20049;-75
2022/12/15 07:46:17;;;;;;;7.53;5.85;;;9.70;96.70;;;;;;5042293;28;20069;-75
2022/12/15 07:48:45;;;;;;;7.43;6.13;;;9.70;96.70;;;;;;5032874;28;20045;-75
2022/12/15 07:51:18;;;;;;;7.10;5.50;;;9.70;96.70;;;;;;5035789;28;20033;-75
2022/12/15 07:53:48;;;;;;;7.30;5.63;;;9.70;96.70;;;;;;5057821;28;20045;-75
2022/12/15 07:56:18;;;;;;;7.38;5.68;;;9.70;96.70;;;;;;5042459;28;20588;-75
2022/12/15 07:58:48;;;;;;;6.22;5.60;;;9.80;96.70;;;;;;5040778;28;20168;-75
2022/12/15 08:01:16;;;;;;;7.30;5.22;;;9.80;96.70;;;;;;5034452;28;20064;-76
2022/12/15 08:03:44;;;;;;;8.68;6.55;;;9.90;96.70;;;;;;5048973;28;20076;-75
2022/12/15 08:06:13;;;;;;;6.60;5.70;;;9.90;96.70;;;;;;5040742;28;20071;-75
2022/12/15 08:08:44;;;;;;;9.20;6.43;;;9.90;96.70;;;;;;5059002;28;20041;-74
2022/12/15 08:11:19;;;;;;;9.52;6.95;;;9.90;96.70;;;;;;5060883;28;20061;-74
2022/12/15 08:13:49;;;;;;;8.02;6.90;;;9.90;96.70;;;;;;5061686;28;20048;-76
2022/12/15 08:16:37;;;;;;;7.05;6.00;;;10.00;96.70;;;;;;5046894;28;20514;-75
2022/12/15 08:19:07;;;;;;;7.22;6.35;;;10.00;96.70;;;;;;5045989;28;20048;-78
2022/12/15 08:21:37;;;;;;;7.18;6.38;;;10.10;96.70;;;;;;5045989;28;20597;-77
2022/12/15 08:24:07;;;;;;;7.57;6.20;;;10.10;96.70;;;;;;5053487;28;20494;-78
2022/12/15 08:26:36;;;;;;;10.32;7.32;;;10.20;96.70;;;;;;5046314;28;20134;-78
2022/12/15 08:29:11;;;;;;;8.23;6.85;;;10.20;96.70;;;;;;5042405;28;20045;-78
2022/12/15 08:32:00;;;;;;;8.73;6.90;;;10.20;96.70;;;;;;5035299;28;20041;-77
2022/12/15 08:34:28;;;;;;;7.70;6.90;;;10.30;96.70;;;;;;5039915;28;20148;-78
2022/12/15 08:36:56;;;;;;;8.45;7.05;;;10.30;96.70;;;;;;5041674;28;20555;-77
2022/12/15 08:39:25;;;;;;;9.85;7.82;;;10.30;96.70;;;;;;5048010;28;20037;-77
2022/12/15 08:41:52;;;;;;;9.38;7.75;;;10.40;96.70;;;;;;5044456;28;20040;-76
2022/12/15 08:44:22;;;;;;;10.55;8.60;;;10.40;96.70;;;;;;5044225;28;20049;-75
2022/12/15 08:46:50;;;;;;;10.32;7.93;;;10.50;96.70;;;;;;5039002;28;20041;-75
2022/12/15 08:49:18;;;;;;;9.45;7.68;;;10.50;96.70;;;;;;5035543;28;20144;-75
2022/12/15 08:51:49;;;;;;;8.25;7.15;;;10.60;96.70;;;;;;5058301;28;20042;-75
2022/12/15 08:54:19;;;;;;;8.30;7.35;;;10.60;96.70;;;;;;5044466;28;20071;-75
2022/12/15 08:56:47;;;;;;;7.80;7.00;;;10.60;96.70;;;;;;5052592;28;20502;-75
2022/12/15 08:59:15;;;;;;;6.80;6.10;;;10.60;96.70;;;;;;5060509;28;20076;-75
2022/12/15 09:01:45;;;;;;;7.88;6.65;;;10.60;96.70;;;;;;5044239;28;20706;-74
2022/12/15 09:04:14;;;;;;;7.97;6.82;;;10.60;96.70;;;;;;5044351;28;20092;-75
2022/12/15 09:06:42;;;;;;;7.72;6.63;;;10.60;96.70;;;;;;5044617;28;20095;-75
2022/12/15 09:09:15;;;;;;;6.05;5.45;;;10.60;96.70;;;;;;5036901;28;20128;-75
2022/12/15 09:11:43;;;;;;;6.40;5.55;;;10.60;96.70;;;;;;5044725;28;20045;-76
2022/12/15 09:14:10;;;;;;;6.80;5.25;;;10.60;96.70;;;;;;5042124;28;20075;-75
2022/12/15 09:16:38;;;;;;;6.30;5.70;;;10.60;96.70;;;;;;5056393;28;20037;-75
2022/12/15 09:19:09;;;;;;;6.43;5.43;;;10.70;96.70;;;;;;5043586;28;20530;-75
2022/12/15 09:21:38;;;;;;;5.55;4.95;;;10.70;96.70;;;;;;5060189;28;20041;-74
2022/12/15 09:24:06;;;;;;;6.50;5.10;;;10.80;96.70;;;;;;5045176;28;20148;-75
2022/12/15 09:26:34;;;;;;;4.93;4.43;;;10.70;96.70;;;;;;5056733;28;20049;-76
2022/12/15 09:29:02;;;;;;;6.53;5.03;;;10.70;96.70;;;;;;5043078;28;20045;-75
2022/12/15 09:31:32;;;;;;;5.85;4.65;;;10.70;96.70;;;;;;5045680;28;20069;-75
2022/12/15 09:34:00;;;;;;;6.18;4.78;;;10.70;96.70;;;;;;5059053;28;20049;-75
2022/12/15 09:36:31;;;;;;;5.28;4.78;;;10.70;96.70;;;;;;5047100;28;20059;-75
2022/12/15 09:39:01;;;;;;;4.75;4.28;;;10.70;96.70;;;;;;5054172;28;20144;-74
2022/12/15 09:41:31;;;;;;;5.18;4.65;;;10.80;96.70;;;;;;5045473;28;20052;-75
2022/12/15 09:44:01;;;;;;;4.70;4.18;;;10.80;96.70;;;;;;5044500;28;20076;-74
2022/12/15 09:46:47;;;;;;;5.50;4.25;;;10.80;96.70;;;;;;5044923;28;20047;-76
2022/12/15 09:49:27;;;;;;;5.53;4.53;;;10.80;96.70;;;;;;5059934;28;20069;-75
2022/12/15 09:52:02;;;;;;;7.25;4.82;;;10.80;96.70;;;;;;5042808;28;20049;-75
2022/12/15 09:54:40;;;;;;;4.88;4.38;;;10.80;96.70;;;;;;5034916;28;20072;-75
2022/12/15 09:57:15;;;;;;;4.65;4.07;;;10.90;96.70;;;;;;5039461;28;20529;-75
2022/12/15 09:59:56;;;;;;;4.78;4.05;;;10.90;96.70;;;;;;5039781;28;20079;-74
2022/12/15 10:02:51;;;;;;;5.40;4.32;;;10.90;96.70;;;;;;5050600;28;20048;-77
2022/12/15 10:05:35;;;;;;;5.20;4.70;;;11.00;96.70;;;;;;5040211;28;20045;-75
2022/12/15 10:08:30;;;;;;;4.90;4.40;;;11.10;96.70;;;;;;5038059;28;20110;-75
2022/12/15 10:11:00;;;;;;;4.57;3.55;;;11.10;96.70;;;;;;5053782;28;20046;-75
2022/12/15 10:13:39;;;;;;;6.63;4.30;;;11.10;96.70;;;;;;5054850;28;20053;-75
2022/12/15 10:16:19;;;;;;;5.72;4.78;;;11.20;96.70;;;;;;5044105;28;20055;-75
2022/12/15 10:18:56;;;;;;;4.40;3.97;;;11.10;96.70;;;;;;5048277;28;20127;-77
2022/12/15 10:21:31;;;;;;;5.15;4.65;;;11.10;96.70;;;;;;5050034;28;20058;-75
2022/12/15 10:24:11;;;;;;;5.05;4.05;;;11.10;96.70;;;;;;5043880;28;20044;-75
2022/12/15 10:26:41;;;;;;;4.75;4.25;;;11.10;96.70;;;;;;5044616;28;20045;-75
2022/12/15 10:29:24;;;;;;;4.70;4.30;;;11.20;96.70;;;;;;5048833;28;20052;-75
2022/12/15 10:31:56;;;;;;;4.45;4.00;;;11.20;96.70;;;;;;5038142;28;20423;-75
2022/12/15 10:34:27;;;;;;;4.88;4.07;;;11.30;96.70;;;;;;5024886;28;20132;-76
2022/12/15 10:36:56;;;;;;;4.35;3.80;;;11.40;96.70;;;;;;5025525;28;20046;-75
2022/12/15 10:39:38;;;;;;;4.40;3.88;;;11.50;96.70;;;;;;5022736;28;20084;-75
2022/12/15 10:42:14;;;;;;;4.82;3.83;;;11.60;96.70;;;;;;5024317;28;20076;-75
2022/12/15 10:44:44;;;;;;;4.28;3.80;;;11.70;96.70;;;;;;5036866;28;20044;-75
2022/12/15 10:47:20;;;;;;;4.10;3.70;;;11.70;96.70;;;;;;5058534;28;20506;-76
2022/12/15 10:49:49;;;;;;;4.38;3.50;;;11.80;96.70;;;;;;5042104;28;20048;-75
2022/12/15 10:52:33;;;;;;;5.18;3.70;;;11.80;96.70;;;;;;5036470;28;20041;-75
2022/12/15 10:55:30;;;;;;;4.88;3.83;;;11.90;96.70;;;;;;5037045;28;20114;-75
2022/12/15 10:58:00;;;;;;;3.95;3.53;;;12.00;96.70;;;;;;5049995;28;20127;-75
2022/12/15 11:00:30;;;;;;;3.83;3.47;;;12.00;96.70;;;;;;5043596;28;20049;-75
2022/12/15 11:02:59;;;;;;;4.63;4.03;;;12.00;96.70;;;;;;5038648;28;20053;-74
2022/12/15 11:05:27;;;;;;;4.25;3.80;;;12.00;96.70;;;;;;5037726;28;20132;-75
2022/12/15 11:08:13;;;;;;;4.10;3.70;;;12.00;96.70;;;;;;5039826;28;20198;-75
2022/12/15 11:13:39;;;;;;;5.13;4.63;;;11.90;96.70;;;;;;5055824;28;20053;-75
2022/12/15 11:16:15;;;;;;;6.63;4.50;;;11.90;96.70;;;;;;5041585;28;20045;-75
2022/12/15 11:18:50;;;;;;;5.55;4.07;;;11.90;96.70;;;;;;5033846;28;20044;-75
2022/12/15 11:21:24;;;;;;;5.35;4.43;;;11.90;96.70;;;;;;5042320;28;20573;-74
2022/12/15 11:24:03;;;;;;;5.43;4.47;;;11.90;96.70;;;;;;5043539;28;20052;-74
2022/12/15 11:26:43;;;;;;;5.68;4.13;;;11.90;96.70;;;;;;5034236;28;20472;-75
2022/12/15 11:29:22;;;;;;;5.53;4.90;;;11.90;96.70;;;;;;5038812;28;20049;-75
2022/12/15 11:31:51;;;;;;;5.20;4.70;;;11.90;96.70;;;;;;5057403;28;20060;-75
2022/12/15 11:34:23;;;;;;;6.50;4.38;;;11.90;96.70;;;;;;5041412;28;20099;-75
2022/12/15 11:37:07;;;;;;;4.68;4.15;;;11.80;96.70;;;;;;5051719;28;20640;-75
2022/12/15 11:39:56;;;;;;;4.88;4.38;;;11.80;96.70;;;;;;5050555;28;20069;-76
2022/12/15 11:42:39;;;;;;;6.28;5.13;;;11.80;96.70;;;;;;5023418;28;20057;-75
2022/12/15 11:45:17;;;;;;;6.43;4.20;;;11.80;96.70;;;;;;5050169;28;20052;-74
2022/12/15 11:47:49;;;;;;;4.88;4.10;;;11.80;96.70;;;;;;5041359;28;20051;-76
2022/12/15 11:50:29;;;;;;;5.30;4.80;;;11.80;96.70;;;;;;5039053;28;20147;-76
2022/12/15 11:53:22;;;;;;;16.58;14.82;;;11.70;96.70;;;;;;5038252;28;20067;-75
2022/12/15 11:55:56;;;;;;;12.05;9.27;;;11.70;96.70;;;;;;5023581;28;20128;-75
2022/12/15 11:58:47;;;;;;;9.32;8.32;;;11.70;96.70;;;;;;5031643;28;20037;-76
2022/12/15 12:01:29;;;;;;;7.72;6.85;;;11.70;96.70;;;;;;5048269;28;20049;-75
2022/12/15 12:04:10;;;;;;;8.25;6.75;;;11.60;96.70;;;;;;5026841;28;20054;-75
2022/12/15 12:06:46;;;;;;;8.68;6.93;;;11.60;96.70;;;;;;5029517;28;20543;-76
2022/12/15 12:09:33;;;;;;;9.73;6.38;;;11.60;96.70;;;;;;5022615;28;20073;-76
2022/12/15 12:12:12;;;;;;;9.20;7.03;;;11.60;96.70;;;;;;5041750;28;20174;-74
2022/12/15 12:14:56;;;;;;;6.00;5.15;;;11.60;96.70;;;;;;5039478;28;20067;-75
2022/12/15 12:17:37;;;;;;;6.32;4.97;;;11.50;96.70;;;;;;5050091;28;20446;-76
2022/12/15 12:20:15;;;;;;;8.07;5.70;;;11.50;96.70;;;;;;5042029;28;20438;-77
2022/12/15 12:22:52;;;;;;;8.38;6.18;;;11.40;96.70;;;;;;5056183;28;20075;-77
2022/12/15 12:25:23;;;;;;;7.82;6.63;;;11.40;96.70;;;;;;5034486;28;20148;-75
2022/12/15 12:27:55;;;;;;;7.60;5.85;;;11.40;96.70;;;;;;5042368;28;20210;-75
2022/12/15 12:30:28;;;;;;;9.10;6.80;;;11.30;96.70;;;;;;5029657;28;20402;-74
2022/12/15 12:33:02;;;;;;;9.40;6.07;;;11.30;96.70;;;;;;5044930;28;20049;-75
2022/12/15 12:35:37;;;;;;;10.55;6.15;;;11.30;96.70;;;;;;5023520;28;20047;-75
2022/12/15 12:38:08;;;;;;;9.43;7.95;;;11.20;96.70;;;;;;5034685;28;20136;-74
2022/12/15 12:40:48;;;;;;;8.98;7.53;;;11.20;96.70;;;;;;5045110;28;20095;-75
2022/12/15 12:43:31;;;;;;;10.88;8.65;;;11.20;96.70;;;;;;5041072;28;20135;-74
2022/12/15 12:46:17;;;;;;;10.07;7.55;;;11.10;96.70;;;;;;5034429;28;20100;-76
2022/12/15 12:48:50;;;;;;;10.00;7.85;;;11.10;96.70;;;;;;5029718;28;20778;-74
2022/12/15 12:51:26;;;;;;;11.35;7.97;;;11.10;96.70;;;;;;5056094;28;20059;-74
2022/12/15 12:53:55;;;;;;;13.57;9.80;;;11.10;96.70;;;;;;5049917;28;20507;-74
2022/12/15 12:56:34;;;;;;;16.77;11.23;;;11.10;96.70;;;;;;5055927;28;20837;-75
2022/12/15 12:59:07;;;;;;;13.48;10.10;;;11.10;96.70;;;;;;5045165;28;20106;-76
2022/12/15 13:01:37;;;;;;;12.15;9.90;;;11.10;96.70;;;;;;5043950;28;20049;-75
2022/12/15 13:04:07;;;;;;;11.82;8.85;;;11.10;96.70;;;;;;5037525;28;20045;-75
2022/12/15 13:07:02;;;;;;;14.70;11.00;;;11.10;96.70;;;;;;5058518;28;20049;-75
2022/12/15 13:09:42;;;;;;;17.08;12.85;;;11.10;96.70;;;;;;5026910;28;20235;-75
2022/12/15 13:12:35;;;;;;;13.48;10.68;;;11.10;96.70;;;;;;5026740;28;20054;-75
2022/12/15 13:15:38;;;;;;;10.82;8.60;;;11.10;96.70;;;;;;5025897;28;20060;-75
2022/12/15 13:18:26;;;;;;;15.77;11.77;;;11.10;96.70;;;;;;5032210;28;20052;-75
2022/12/15 13:20:56;;;;;;;12.32;10.82;;;11.00;96.70;;;;;;5059240;28;20203;-74
2022/12/15 13:23:41;;;;;;;14.82;10.55;;;11.10;96.70;;;;;;5054237;28;20565;-74
2022/12/15 13:26:17;;;;;;;12.63;10.68;;;11.10;96.70;;;;;;5044519;28;20047;-75
2022/12/15 13:28:49;;;;;;;12.63;10.63;;;11.00;96.70;;;;;;5058403;28;20053;-75
2022/12/15 13:31:32;;;;;;;13.25;10.55;;;11.00;96.70;;;;;;5028814;28;20799;-74
2022/12/15 13:34:22;;;;;;;12.98;10.85;;;11.10;96.70;;;;;;5029036;28;20073;-74
2022/12/15 13:37:01;;;;;;;12.75;10.75;;;11.10;96.70;;;;;;5036162;28;20425;-74
2022/12/15 13:39:52;;;;;;;13.07;11.10;;;11.10;96.70;;;;;;5039099;28;20048;-74
2022/12/15 13:42:34;;;;;;;15.25;11.27;;;11.10;96.70;;;;;;5028957;28;20499;-74
2022/12/15 13:45:34;;;;;;;12.43;9.10;;;11.10;96.70;;;;;;5040672;28;20483;-74
2022/12/15 13:48:19;;;;;;;10.15;7.88;;;11.10;96.70;;;;;;5041161;28;20576;-74
2022/12/15 13:50:56;;;;;;;8.40;7.50;;;11.10;96.70;;;;;;5044875;28;20148;-74
2022/12/15 13:53:27;;;;;;;9.15;7.32;;;11.10;96.70;;;;;;5056711;28;20503;-74
2022/12/15 13:56:05;;;;;;;8.68;6.60;;;11.10;96.70;;;;;;5041985;28;20060;-76
2022/12/15 13:58:40;;;;;;;8.85;7.00;;;11.10;96.70;;;;;;5034778;28;20046;-74
2022/12/15 14:01:19;;;;;;;8.20;6.68;;;11.10;96.70;;;;;;5052587;28;20140;-73
2022/12/15 14:04:14;;;;;;;6.70;6.00;;;11.10;96.70;;;;;;5049634;28;20683;-74
2022/12/15 14:06:48;;;;;;;7.85;6.90;;;11.10;96.70;;;;;;5037491;28;20064;-75
2022/12/15 14:09:23;;;;;;;9.23;7.57;;;11.10;96.70;;;;;;5043113;28;20055;-75
2022/12/15 14:11:51;;;;;;;10.48;7.30;;;11.10;96.70;;;;;;5024401;28;20072;-75
2022/12/15 14:14:24;;;;;;;9.20;7.55;;;11.10;96.70;;;;;;5042625;28;20064;-76
2022/12/15 14:16:56;;;;;;;8.23;7.28;;;11.10;96.70;;;;;;5052946;28;20053;-74
2022/12/15 14:19:25;;;;;;;10.23;7.55;;;11.10;96.70;;;;;;5024697;28;20041;-76
2022/12/15 14:21:56;;;;;;;9.52;7.35;;;11.10;96.70;;;;;;5026977;28;20120;-76
2022/12/15 14:24:28;;;;;;;11.50;7.78;;;11.10;96.70;;;;;;5035754;28;20048;-76
2022/12/15 14:27:21;;;;;;;11.27;9.88;;;11.10;96.70;;;;;;5039749;28;20068;-76
2022/12/15 14:30:07;;;;;;;14.27;11.45;;;11.10;96.70;;;;;;5058411;28;20045;-75
2022/12/15 14:32:35;;;;;;;11.75;9.52;;;11.10;96.70;;;;;;5034303;28;20553;-77
2022/12/15 14:35:04;;;;;;;10.68;7.55;;;11.10;96.70;;;;;;5037779;28;20068;-76
2022/12/15 14:37:34;;;;;;;9.77;7.82;;;11.10;96.70;;;;;;5043589;28;20403;-80
2022/12/15 14:40:02;;;;;;;9.82;8.38;;;11.20;96.70;;;;;;5029194;28;20037;-77
2022/12/15 14:42:30;;;;;;;10.30;8.32;;;11.10;96.70;;;;;;5033742;28;20064;-76
2022/12/15 14:44:58;;;;;;;11.48;8.52;;;11.20;96.70;;;;;;5024467;28;20128;-76
2022/12/15 14:47:29;;;;;;;9.75;8.52;;;11.20;96.70;;;;;;5036592;28;20047;-76
2022/12/15 14:50:00;;;;;;;10.23;9.10;;;11.20;96.70;;;;;;5058443;28;20474;-76
2022/12/15 14:52:35;;;;;;;11.80;9.25;;;11.20;96.70;;;;;;5043025;28;20183;-76
2022/12/15 14:55:23;;;;;;;11.05;8.30;;;11.20;96.70;;;;;;5042813;28;20064;-76
2022/12/15 14:57:55;;;;;;;9.10;7.63;;;11.20;96.70;;;;;;5059016;28;20099;-76
2022/12/15 15:00:29;;;;;;;14.52;11.48;;;11.20;96.70;;;;;;5042114;28;20056;-76
2022/12/15 15:03:19;;;;;;;15.38;11.68;;;11.20;96.70;;;;;;5040443;28;20033;-76
2022/12/15 15:05:58;;;;;;;14.77;10.68;;;11.20;96.70;;;;;;5039485;28;20051;-76
2022/12/15 15:08:30;;;;;;;10.77;8.23;;;11.20;96.70;;;;;;5041872;28;20123;-76
2022/12/15 15:11:02;;;;;;;9.50;7.35;;;11.20;96.70;;;;;;5050643;28;20057;-77
2022/12/15 15:13:36;;;;;;;10.45;7.40;;;11.20;96.70;;;;;;5020082;28;20461;-77
2022/12/15 15:16:13;;;;;;;;;;;11.30;96.70;;;;;;5042035;28;20421;-76
2022/12/15 15:18:42;;;;;;;6.90;5.90;;;11.30;96.70;;;;;;5042904;28;19924;-76
2022/12/15 15:21:20;;;;;;;9.18;6.63;;;11.30;96.70;;;;;;5050465;28;20470;-76
2022/12/15 15:24:00;;;;;;;8.90;7.47;;;11.30;96.70;;;;;;5058393;28;20049;-76
2022/12/15 15:26:30;;;;;;;8.32;6.63;;;11.30;96.70;;;;;;5056414;28;20558;-76
2022/12/15 15:28:58;;;;;;;20.40;15.73;;;11.30;96.70;;;;;;5023419;28;20102;-76
2022/12/15 15:31:30;;;;;;;10.35;8.57;;;11.30;96.70;;;;;;5023990;28;21090;-76
2022/12/15 15:34:08;;;;;;;8.32;5.90;;;11.30;96.70;;;;;;5041297;28;20069;-77
2022/12/15 15:36:38;;;;;;;7.60;6.10;;;11.30;96.70;;;;;;5028103;28;20049;-76
2022/12/15 15:39:14;;;;;;;7.35;4.75;;;11.30;96.70;;;;;;5040729;28;20055;-76
2022/12/15 15:41:42;;;;;;;6.10;4.35;;;11.30;96.70;;;;;;5056570;28;20140;-76
2022/12/15 15:44:12;;;;;;;6.13;5.00;;;11.30;96.70;;;;;;5057294;28;20120;-76
2022/12/15 15:46:45;;;;;;;14.55;9.75;;;11.30;96.70;;;;;;5035023;28;20045;-76